createdAt,value
2019-01-10T19:53:19.692Z,1.61
2019-01-10T19:55:53.140Z,1.54
2019-01-10T19:58:25.850Z,1.51
2019-01-10T20:01:00.188Z,1.54
2019-01-10T20:03:33.841Z,1.54
2019-01-10T20:06:07.502Z,1.43
2019-01-10T20:08:40.744Z,1.47
2019-01-10T20:11:12.267Z,1.53
2019-01-10T20:13:55.009Z,1.60
2019-01-10T20:16:37.243Z,1.56
2019-01-10T20:19:12.393Z,1.53
2019-01-10T20:21:46.016Z,1.52
2019-01-10T20:24:19.187Z,1.43
2019-01-10T20:26:52.667Z,1.43
2019-01-10T20:29:26.229Z,1.40
2019-01-10T20:31:59.458Z,1.36
2019-01-10T20:34:33.671Z,1.34
2019-01-10T20:37:06.988Z,1.37
2019-01-10T20:39:40.178Z,1.37
2019-01-10T20:42:22.817Z,1.44
2019-01-10T20:44:57.528Z,1.35
2019-01-10T20:47:31.608Z,1.34
2019-01-10T20:50:06.784Z,1.38
2019-01-10T20:52:49.817Z,1.42
2019-01-10T20:55:32.152Z,1.41
2019-01-10T20:58:05.658Z,1.37
2019-01-10T21:00:38.923Z,1.35
2019-01-10T21:03:12.578Z,1.31
2019-01-10T21:05:45.832Z,1.37
2019-01-10T21:08:31.531Z,1.34
2019-01-10T21:11:05.007Z,1.27
2019-01-10T21:13:39.592Z,1.26
2019-01-10T21:16:23.739Z,1.29
2019-01-10T21:18:57.365Z,1.27
2019-01-10T21:21:31.638Z,1.19
2019-01-10T21:24:15.245Z,1.31
2019-01-10T21:26:51.234Z,1.22
2019-01-10T21:29:25.108Z,1.31
2019-01-10T21:31:59.786Z,1.27
2019-01-10T21:34:43.116Z,1.29
2019-01-10T21:37:16.452Z,1.25
2019-01-10T21:39:58.462Z,1.28
2019-01-10T21:42:32.867Z,1.26
2019-01-10T21:45:11.415Z,1.24
2019-01-10T21:48:15.394Z,1.26
2019-01-10T21:50:53.274Z,1.28
2019-01-10T21:53:26.957Z,1.21
2019-01-10T21:56:22.897Z,1.34
2019-01-10T21:59:08.711Z,1.40
2019-01-10T22:01:42.915Z,1.34
2019-01-10T22:04:20.016Z,1.28
2019-01-10T22:07:04.054Z,1.33
2019-01-10T22:09:37.584Z,1.28
2019-01-10T22:12:13.557Z,1.22
2019-01-10T22:14:49.153Z,1.23
2019-01-10T22:17:20.702Z,1.25
2019-01-10T22:19:58.949Z,1.29
2019-01-10T22:22:43.518Z,1.35
2019-01-10T22:25:14.442Z,1.30
2019-01-10T22:27:47.255Z,1.29
2019-01-10T22:30:20.403Z,1.23
2019-01-10T22:32:53.549Z,1.22
2019-01-10T22:35:25.283Z,1.22
2019-01-10T22:38:02.116Z,1.19
2019-01-10T22:40:32.844Z,1.22
2019-01-10T22:43:13.933Z,1.25
2019-01-10T22:45:47.656Z,1.24
2019-01-10T22:48:21.310Z,1.23
2019-01-10T22:50:55.236Z,1.23
2019-01-10T22:53:28.842Z,1.24
2019-01-10T22:56:02.131Z,1.26
2019-01-10T22:58:35.605Z,1.27
2019-01-10T23:01:32.996Z,1.29
2019-01-10T23:04:32.837Z,1.39
2019-01-10T23:07:18.520Z,1.32
2019-01-10T23:09:51.838Z,1.29
2019-01-10T23:12:35.635Z,1.36
2019-01-10T23:15:30.553Z,1.31
2019-01-10T23:18:12.838Z,1.38
2019-01-10T23:20:53.969Z,1.36
2019-01-10T23:23:27.250Z,1.37
2019-01-10T23:26:00.857Z,1.39
2019-01-10T23:28:39.840Z,1.39
2019-01-10T23:31:17.728Z,1.39
2019-01-10T23:33:49.486Z,1.41
2019-01-10T23:36:23.351Z,1.46
2019-01-10T23:39:15.288Z,1.53
2019-01-10T23:41:58.825Z,1.52
2019-01-10T23:44:32.047Z,1.48
2019-01-10T23:47:05.660Z,1.54
2019-01-10T23:49:42.911Z,1.55
2019-01-10T23:52:16.525Z,1.58
2019-01-10T23:54:52.203Z,1.63
2019-01-10T23:57:24.251Z,1.56
